Glencoe, Ohio
Current Conditions -  °F | °C
As of 3:53 AM on Saturday 22 Nov 2014 (Local Time) from KHLG Reporting Station
Clear Clear  
Wind Chill: 13°   Ceiling: Unl
Heat Index: 23°   Visibility: 10mi
Dew Point:   Wind: 9mph
Humidity: 53%   Direction: 160°SSE
Pressure: 30.36"   Gusts: NA
Location:  40.01°N, 80.89°W
Report Text: KHLG 220853Z AUTO 16008KT 10SM CLR M05/M13 A3036 RMK AO2 SLP299 T10501133 58018
Loading
Personal Weather Stations






























Interactive Weather Map New forecast layout! Learn more

10-Day Weather Forecast

Advertisements
Track Severe Weather on mobile